Time;durP1;ratioP1;P1;durP2;ratioP2;P2;SDS_P1;SDS_P2;PMS_P1;PMS_P2;Temp;Humidity;BMP_temperature;BMP_pressure;BME280_temperature;BME280_humidity;BME280_pressure;Samples;Min_cycle;Max_cycle;Signal;HPM_P1;HPM_P2
2022/11/04 00:02:27;;;;;;;14.40;12.13;;;;;;;21.63;39.14;95199.53;6021484;28;104961;-79
2022/11/04 00:05:30;;;;;;;11.90;10.60;;;;;;;21.60;38.88;95187.63;6020052;28;103926;-78
2022/11/04 00:08:33;;;;;;;12.40;11.27;;;;;;;21.62;39.11;95195.31;6036988;28;105833;-79
2022/11/04 00:17:18;;;;;;;12.13;11.00;;;;;;;21.60;39.08;95181.50;6023333;28;104660;-79
2022/11/04 00:18:20;;;;;;;12.60;11.30;;;;;;;21.56;39.13;95186.66;6039949;28;103758;-79
2022/11/04 00:34:53;;;;;;;11.30;10.30;;;;;;;21.56;39.04;95186.66;6020244;28;103643;-78
2022/11/04 00:37:56;;;;;;;11.63;10.60;;;;;;;21.57;38.75;95188.22;6013600;28;105046;-78
2022/11/04 00:40:59;;;;;;;12.50;11.20;;;;;;;21.56;38.87;95183.97;6022070;28;104870;-79
2022/11/04 00:44:05;;;;;;;11.97;10.73;;;;;;;21.56;38.91;95181.31;6021856;28;106152;-79
2022/11/04 00:47:08;;;;;;;11.47;10.47;;;;;;;21.55;38.68;95173.63;6044114;28;103680;-79
2022/11/04 00:50:12;;;;;;;12.37;10.67;;;;;;;21.55;39.20;95179.75;6019541;28;103952;-79
2022/11/04 00:53:15;;;;;;;11.80;10.70;;;;;;;21.50;38.67;95169.19;6032547;28;103590;-79
2022/11/04 00:56:19;;;;;;;12.03;10.83;;;;;;;21.54;38.84;95174.72;6040634;28;103118;-78
2022/11/04 00:59:22;;;;;;;11.03;10.03;;;;;;;21.54;38.87;95172.06;6037682;28;104802;-79
2022/11/04 01:02:26;;;;;;;12.20;11.07;;;;;;;21.50;38.98;95158.53;6029091;28;107334;-78
2022/11/04 01:05:31;;;;;;;11.03;10.10;;;;;;;21.53;39.00;95160.63;6031178;28;105619;-79
2022/11/04 01:08:34;;;;;;;12.20;10.20;;;;;;;21.52;39.14;95149.19;6039611;28;104306;-78
2022/11/04 01:11:38;;;;;;;12.63;11.17;;;;;;;21.53;38.93;95155.28;6032891;28;105857;-80
2022/11/04 01:14:41;;;;;;;11.37;10.27;;;;;;;21.50;39.07;95147.88;6039512;28;107204;-79
2022/11/04 01:17:44;;;;;;;12.03;10.83;;;;;;;21.49;38.99;95154.28;6027845;28;104346;-80
2022/11/04 01:20:49;;;;;;;11.43;10.23;;;;;;;21.48;38.93;95142.84;6047732;28;104794;-79
2022/11/04 01:23:53;;;;;;;10.87;9.87;;;;;;;21.47;39.26;95138.63;6039186;28;106024;-79
2022/11/04 01:26:56;;;;;;;10.80;9.90;;;;;;;21.51;39.36;95136.97;6041061;28;103946;-79
2022/11/04 01:29:59;;;;;;;11.60;10.60;;;;;;;21.50;39.04;95131.91;6047449;28;103662;-78
2022/11/04 01:33:02;;;;;;;12.30;11.10;;;;;;;21.46;38.88;95131.72;6048301;28;106671;-80
2022/11/04 01:36:13;;;;;;;10.17;9.27;;;;;;;21.46;39.39;95131.72;6035061;28;104480;-79
2022/11/04 01:39:16;;;;;;;9.83;8.90;;;;;;;21.47;39.06;95127.97;6031642;28;105093;-79
2022/11/04 01:42:22;;;;;;;11.20;10.10;;;;;;;21.47;39.00;95130.63;6034158;28;102799;-79
2022/11/04 01:45:26;;;;;;;10.27;9.37;;;;;;;21.45;38.83;95132.03;6024620;28;105985;-79
2022/11/04 01:48:33;;;;;;;10.33;9.40;;;;;;;21.43;39.23;95132.31;6046620;28;106718;-79
2022/11/04 01:51:42;;;;;;;11.13;9.80;;;;;;;21.46;38.99;95129.06;6044575;28;103670;-78
2022/11/04 01:54:48;;;;;;;10.10;9.20;;;;;;;21.45;39.08;95124.81;6032438;28;104215;-79
2022/11/04 01:57:54;;;;;;;10.67;9.40;;;;;;;21.44;38.87;95120.59;6028686;28;104275;-79
2022/11/04 02:00:59;;;;;;;9.67;8.77;;;;;;;21.44;39.09;95125.91;6041959;28;103362;-79
2022/11/04 02:07:21;;;;;;;11.40;9.63;;;;;;;21.43;38.94;95110.25;6037049;28;106204;-78
2022/11/04 02:10:27;;;;;;;10.83;9.73;;;;;;;21.43;38.92;95119.00;6042233;28;103741;-79
2022/11/04 02:13:32;;;;;;;10.70;9.67;;;;;;;21.45;38.77;95111.50;6046066;28;107145;-79
2022/11/04 02:16:42;;;;;;;10.90;9.90;;;;;;;21.42;38.88;95106.00;6041615;28;105665;-79
2022/11/04 02:20:07;;;;;;;11.73;9.80;;;;;;;21.41;39.11;95102.56;6028597;28;107110;-79
2022/11/04 02:23:40;;;;;;;10.30;9.40;;;;;;;21.39;39.22;95107.41;6036565;28;106386;-79
2022/11/04 02:27:17;;;;;;;10.67;9.63;;;;;;;21.41;38.93;95105.22;6041608;28;105805;-79
2022/11/04 02:30:22;;;;;;;10.97;9.97;;;;;;;21.40;38.75;95114.28;6028510;28;103570;-79
2022/11/04 02:33:33;;;;;;;10.90;9.90;;;;;;;21.39;39.00;95112.72;6024592;28;105790;-80
2022/11/04 02:36:44;;;;;;;10.57;9.37;;;;;;;21.41;38.99;95105.22;6043621;28;104409;-79
2022/11/04 02:39:55;;;;;;;9.93;8.90;;;;;;;21.37;39.08;95098.13;6044738;28;105768;-79
2022/11/04 02:43:01;;;;;;;9.73;8.90;;;;;;;21.35;39.08;95092.34;6037788;28;103811;-79
2022/11/04 02:46:16;;;;;;;9.90;8.90;;;;;;;21.39;39.09;95103.94;6040127;28;104223;-79
2022/11/04 02:49:23;;;;;;;10.47;9.47;;;;;;;21.37;39.09;95095.47;6042384;28;105025;-79
2022/11/04 02:52:33;;;;;;;9.60;8.70;;;;;;;21.39;38.96;95101.28;6040973;28;103498;-79
2022/11/04 02:55:41;;;;;;;10.90;9.80;;;;;;;21.37;38.79;95093.59;6034833;28;103605;-78
2022/11/04 02:58:52;;;;;;;10.07;9.07;;;;;;;21.36;38.71;95092.03;6022704;28;105749;-78
2022/11/04 03:02:04;;;;;;;9.90;8.90;;;;;;;21.36;39.19;95096.56;6033700;28;103900;-78
2022/11/04 03:05:12;;;;;;;9.70;8.70;;;;;;;21.36;39.02;95099.22;6028698;28;103861;-78
2022/11/04 03:08:21;;;;;;;10.73;9.63;;;;;;;21.35;38.88;95095.78;6038696;28;104033;-78
2022/11/04 03:11:27;;;;;;;10.27;9.10;;;;;;;21.34;39.08;95098.72;6029918;28;103855;-78
2022/11/04 03:14:37;;;;;;;10.00;9.00;;;;;;;21.31;39.00;95099.31;6039515;28;103935;-78
2022/11/04 03:17:50;;;;;;;9.70;8.90;;;;;;;21.32;38.85;95087.59;6037122;28;104207;-78
2022/11/04 03:20:58;;;;;;;10.73;9.73;;;;;;;21.33;38.73;95097.94;6045130;28;104736;-78
2022/11/04 03:24:03;;;;;;;10.70;9.60;;;;;;;21.34;38.87;95091.53;6029196;28;105965;-79
2022/11/04 03:27:19;;;;;;;10.37;9.47;;;;;;;21.32;39.17;95096.34;6028232;28;107397;-79
2022/11/04 03:30:24;;;;;;;10.40;9.50;;;;;;;21.34;39.20;95096.88;6035402;28;108185;-78
2022/11/04 03:33:39;;;;;;;10.83;9.70;;;;;;;21.31;38.85;95091.34;6041554;28;107326;-79
2022/11/04 03:36:42;;;;;;;9.93;9.03;;;;;;;21.31;39.01;95094.78;6032888;28;103650;-79
2022/11/04 03:39:46;;;;;;;10.17;9.37;;;;;;;21.31;38.66;95088.66;6035578;28;103603;-79
2022/11/04 03:42:56;;;;;;;10.80;9.90;;;;;;;21.21;39.13;95071.84;6042812;28;103702;-79
2022/11/04 03:45:59;;;;;;;10.10;9.10;;;;;;;21.32;39.03;95096.34;6040630;28;103538;-79
2022/11/04 03:49:05;;;;;;;10.70;9.70;;;;;;;21.30;39.24;95093.22;6045260;28;102919;-79
2022/11/04 03:52:08;;;;;;;11.50;9.60;;;;;;;21.27;38.75;95088.50;6029414;28;104038;-79
2022/11/04 03:55:13;;;;;;;10.73;9.63;;;;;;;21.27;38.90;95087.69;6025919;28;103507;-81
2022/11/04 03:58:29;;;;;;;10.47;9.47;;;;;;;21.25;39.22;95093.31;6041758;28;107379;-79
2022/11/04 04:01:43;;;;;;;10.70;9.67;;;;;;;21.23;39.02;95079.53;6031503;28;104651;-79
2022/11/04 04:04:56;;;;;;;10.50;9.40;;;;;;;21.30;39.05;95087.88;6033893;28;105648;-78
2022/11/04 04:08:13;;;;;;;9.93;9.10;;;;;;;21.35;39.02;95085.13;6024295;28;104127;-80
2022/11/04 04:11:21;;;;;;;9.63;8.73;;;;;;;21.40;39.15;95078.91;6022153;28;105944;-77
2022/11/04 04:14:39;;;;;;;10.87;9.83;;;;;;;21.40;39.18;95089.56;6015938;28;104209;-78
2022/11/04 04:17:51;;;;;;;10.40;9.30;;;;;;;21.38;39.97;95089.06;6035745;28;106600;-80
2022/11/04 04:20:59;;;;;;;11.10;9.73;;;;;;;21.39;39.51;95082.66;6031238;28;104560;-81
2022/11/04 04:27:32;;;;;;;27.13;24.60;;;;;;;21.17;38.70;95086.84;6033437;28;103968;-78
2022/11/04 04:30:36;;;;;;;26.00;21.97;;;;;;;21.10;38.60;95077.69;6046241;28;103327;-79
2022/11/04 04:33:39;;;;;;;20.63;18.77;;;;;;;21.04;38.61;95073.53;6045781;28;106172;-78
2022/11/04 04:36:49;;;;;;;19.47;17.67;;;;;;;21.02;38.21;95081.03;6034734;28;104309;-78
2022/11/04 04:46:44;;;;;;;17.37;15.10;;;;;;;20.99;38.64;95078.94;5965449;28;104370;-83
2022/11/04 04:49:50;;;;;;;19.80;17.90;;;;;;;21.03;38.24;95080.72;6029274;28;103935;-83
2022/11/04 04:52:58;;;;;;;20.60;18.73;;;;;;;21.08;38.45;95083.28;6040264;28;103759;-82
2022/11/04 04:56:01;;;;;;;19.50;17.60;;;;;;;21.19;40.26;95075.91;6032938;28;103934;-81
2022/11/04 04:59:06;;;;;;;16.90;15.10;;;;;;;21.18;40.31;95069.78;6024750;28;104050;-80
2022/11/04 05:02:10;;;;;;;17.97;16.23;;;;;;;21.24;39.44;95085.63;6042296;28;106349;-82
2022/11/04 05:05:14;;;;;;;18.77;16.87;;;;;;;21.23;38.89;95076.09;6034247;28;104362;-81
2022/11/04 05:08:18;;;;;;;19.77;17.80;;;;;;;21.16;39.39;95087.91;6044393;28;104651;-81
2022/11/04 05:11:21;;;;;;;19.93;17.30;;;;;;;20.70;38.72;95076.59;6037928;28;103814;-82
2022/11/04 05:14:29;;;;;;;19.40;17.40;;;;;;;20.78;39.23;95083.88;6046492;28;104773;-80
2022/11/04 05:17:32;;;;;;;18.43;16.63;;;;;;;21.06;38.83;95082.03;6049362;28;105128;-80
2022/11/04 05:20:39;;;;;;;17.90;16.30;;;;;;;21.11;39.72;95090.69;6044475;28;104308;-81
2022/11/04 05:23:43;;;;;;;22.33;16.67;;;;;;;20.96;38.58;95090.97;6039800;28;103397;-80
2022/11/04 05:26:46;;;;;;;17.70;15.83;;;;;;;20.87;38.45;95100.72;6045326;28;103944;-80
2022/11/04 05:29:50;;;;;;;17.60;15.90;;;;;;;20.91;38.57;95088.41;6043450;28;107175;-80
2022/11/04 05:32:53;;;;;;;18.30;16.30;;;;;;;20.87;38.24;95100.72;6035778;28;103616;-79
2022/11/04 05:36:09;;;;;;;17.90;16.00;;;;;;;20.86;38.17;95096.50;6043005;28;104001;-80
2022/11/04 05:39:14;;;;;;;21.00;18.70;;;;;;;20.87;37.97;95098.84;6043643;28;104846;-80
2022/11/04 05:42:17;;;;;;;22.07;18.17;;;;;;;20.86;37.81;95099.16;6044971;28;107131;-80
2022/11/04 05:45:21;;;;;;;22.00;19.73;;;;;;;20.85;37.97;95111.66;6035757;28;104264;-80
2022/11/04 05:48:24;;;;;;;22.90;18.83;;;;;;;20.82;38.20;95112.22;6044257;28;103753;-80
2022/11/04 05:51:29;;;;;;;22.40;18.90;;;;;;;20.82;37.99;95120.22;6044195;28;104617;-80
2022/11/04 05:54:34;;;;;;;23.47;18.77;;;;;;;20.83;37.99;95118.34;6043462;28;104217;-80
2022/11/04 05:57:38;;;;;;;20.30;18.27;;;;;;;20.76;38.12;95131.25;6035210;28;104215;-80
2022/11/04 06:00:41;;;;;;;19.93;17.73;;;;;;;20.76;37.83;95126.72;6045047;28;103845;-79
2022/11/04 06:03:45;;;;;;;20.57;18.57;;;;;;;20.63;38.68;95128.28;6045452;28;103761;-78
2022/11/04 06:06:48;;;;;;;21.20;18.43;;;;;;;21.14;37.61;95131.88;6042242;28;107210;-79
2022/11/04 06:09:53;;;;;;;20.30;18.20;;;;;;;21.89;36.88;95126.03;6045244;28;106044;-79
2022/11/04 06:12:56;;;;;;;20.47;18.47;;;;;;;22.10;36.16;95132.44;6048592;28;104205;-81
2022/11/04 06:16:00;;;;;;;20.57;18.07;;;;;;;22.69;35.02;95127.81;6049908;28;103438;-83
2022/11/04 06:19:03;;;;;;;18.20;16.33;;;;;;;22.26;35.81;95132.84;6041806;28;106089;-82
2022/11/04 06:22:15;;;;;;;19.50;17.50;;;;;;;21.57;37.26;95134.97;6047877;28;103962;-82
2022/11/04 06:25:19;;;;;;;20.63;18.30;;;;;;;21.32;37.51;95130.97;6048053;28;104128;-83
2022/11/04 06:28:22;;;;;;;24.77;19.53;;;;;;;21.29;37.79;95139.53;6049618;28;105040;-81
2022/11/04 06:31:26;;;;;;;22.67;20.57;;;;;;;21.32;38.22;95138.16;6042216;28;108145;-81
2022/11/04 06:34:29;;;;;;;22.67;20.37;;;;;;;21.37;37.66;95133.53;6049372;28;104805;-83
2022/11/04 06:37:32;;;;;;;23.50;20.50;;;;;;;21.39;37.98;95136.69;6049121;28;103618;-83
2022/11/04 06:40:36;;;;;;;22.90;20.60;;;;;;;21.46;37.80;95130.94;6044331;28;103757;-82
2022/11/04 06:43:40;;;;;;;22.80;20.50;;;;;;;21.50;37.96;95126.59;6045573;28;103520;-83
2022/11/04 06:46:43;;;;;;;23.47;19.90;;;;;;;21.57;37.90;95128.84;6047866;28;105891;-83
2022/11/04 06:49:47;;;;;;;24.30;20.47;;;;;;;21.62;37.85;95126.06;6048585;28;105641;-83
2022/11/04 06:52:50;;;;;;;24.63;19.70;;;;;;;21.67;37.75;95117.97;6039683;28;107254;-83
2022/11/04 06:56:01;;;;;;;21.40;19.40;;;;;;;21.67;38.03;95125.94;6047889;28;107026;-83
2022/11/04 06:59:05;;;;;;;21.50;18.10;;;;;;;21.70;37.59;95118.16;6047792;28;104218;-83
2022/11/04 07:02:10;;;;;;;19.93;17.83;;;;;;;21.71;38.17;95118.97;6048019;28;106469;-82
2022/11/04 07:05:14;;;;;;;23.23;19.13;;;;;;;21.79;37.68;95124.34;6039688;28;103747;-82
2022/11/04 07:08:18;;;;;;;20.80;18.60;;;;;;;21.82;37.78;95125.63;6047389;28;103950;-81
2022/11/04 07:11:23;;;;;;;22.90;20.53;;;;;;;21.86;37.82;95120.50;6046716;28;104953;-82
2022/11/04 07:14:27;;;;;;;26.63;21.30;;;;;;;21.87;37.68;95117.56;6042663;28;106108;-81
2022/11/04 07:17:30;;;;;;;23.90;21.50;;;;;;;21.94;37.74;95117.91;6042859;28;104083;-82
2022/11/04 07:20:33;;;;;;;22.00;18.70;;;;;;;21.95;37.82;95116.03;6047315;28;104530;-81
2022/11/04 07:23:37;;;;;;;22.13;19.80;;;;;;;21.97;37.75;95111.97;6047534;28;103736;-82
2022/11/04 07:26:42;;;;;;;22.57;18.80;;;;;;;21.98;37.80;95108.22;6039510;28;106179;-82
2022/11/04 07:29:45;;;;;;;20.60;17.83;;;;;;;21.99;37.85;95103.66;6046604;28;103815;-82
2022/11/04 07:32:48;;;;;;;20.87;18.87;;;;;;;22.02;37.83;95100.41;6047633;28;103887;-82
2022/11/04 07:35:51;;;;;;;19.87;17.87;;;;;;;22.03;37.64;95094.78;6047140;28;106949;-81
2022/11/04 07:39:00;;;;;;;20.87;18.67;;;;;;;22.05;38.05;95087.25;6039008;28;103652;-82
2022/11/04 07:42:08;;;;;;;21.20;18.23;;;;;;;22.07;37.74;95073.63;6046565;28;107517;-83
2022/11/04 07:45:12;;;;;;;19.30;17.33;;;;;;;22.13;37.96;95080.41;6047665;28;103987;-83
2022/11/04 07:48:15;;;;;;;19.40;17.40;;;;;;;22.12;37.80;95070.84;6047160;28;104112;-82
2022/11/04 07:51:20;;;;;;;21.37;19.33;;;;;;;22.17;37.88;95077.91;6040846;28;105915;-83
2022/11/04 07:54:23;;;;;;;21.93;18.70;;;;;;;22.20;37.50;95067.44;6046770;28;105299;-82
2022/11/04 07:57:28;;;;;;;19.13;17.23;;;;;;;22.18;37.81;95085.63;6046811;28;103672;-83
2022/11/04 08:00:31;;;;;;;19.27;17.40;;;;;;;22.17;37.90;95073.38;6040180;28;105812;-82
2022/11/04 08:03:35;;;;;;;18.70;16.90;;;;;;;22.16;37.82;95071.00;6046552;28;103957;-82
2022/11/04 08:06:38;;;;;;;19.10;16.87;;;;;;;22.15;38.09;95064.09;6047930;28;105761;-82
2022/11/04 08:09:41;;;;;;;18.97;17.17;;;;;;;22.16;37.90;95066.47;6047533;28;103645;-82
2022/11/04 08:12:46;;;;;;;17.73;16.03;;;;;;;22.19;37.70;95065.09;6037242;28;106064;-82
2022/11/04 08:15:50;;;;;;;18.33;16.53;;;;;;;22.22;38.04;95065.25;6047473;28;106801;-83
2022/11/04 08:18:53;;;;;;;18.07;16.27;;;;;;;22.22;37.95;95061.81;6046313;28;104203;-83
2022/11/04 08:21:56;;;;;;;18.70;16.70;;;;;;;22.23;38.29;95066.84;6046815;28;107053;-83
2022/11/04 08:24:59;;;;;;;20.60;17.10;;;;;;;22.22;38.29;95048.47;6039727;28;104205;-83
2022/11/04 08:28:04;;;;;;;18.70;16.63;;;;;;;22.23;38.31;95053.50;6046985;28;102936;-83
2022/11/04 08:31:11;;;;;;;23.00;20.80;;;;;;;22.22;37.90;95038.59;6047099;28;106826;-82
2022/11/04 08:34:17;;;;;;;20.37;18.37;;;;;;;22.24;37.95;95043.63;6042465;28;105660;-82
2022/11/04 08:37:20;;;;;;;19.90;17.90;;;;;;;22.23;38.19;95039.38;6042017;28;103648;-83
2022/11/04 08:40:23;;;;;;;19.20;17.30;;;;;;;22.24;37.84;95027.63;6046184;28;102811;-83
2022/11/04 08:43:27;;;;;;;19.43;17.63;;;;;;;22.26;38.27;95034.22;6045571;28;104076;-82
2022/11/04 08:46:34;;;;;;;19.90;17.87;;;;;;;22.26;38.00;95028.91;6038288;28;104218;-83
2022/11/04 08:49:38;;;;;;;19.60;17.23;;;;;;;22.21;38.01;95022.91;6045856;28;105753;-83
2022/11/04 08:52:41;;;;;;;19.20;17.27;;;;;;;22.11;38.10;95008.75;6046330;28;104332;-84
2022/11/04 08:55:45;;;;;;;20.80;18.63;;;;;;;21.69;37.78;95027.91;6043016;28;106946;-82
2022/11/04 08:58:50;;;;;;;18.67;16.70;;;;;;;21.95;38.31;95022.78;6037259;28;103819;-82
2022/11/04 09:01:54;;;;;;;20.83;17.83;;;;;;;22.05;37.58;95010.00;6045848;28;105679;-82
2022/11/04 09:04:57;;;;;;;20.40;16.87;;;;;;;22.10;37.49;95009.84;6046048;28;103688;-83
2022/11/04 09:08:01;;;;;;;20.57;18.07;;;;;;;22.22;37.61;95019.94;6043023;28;108041;-83
2022/11/04 09:11:06;;;;;;;18.50;16.73;;;;;;;22.22;37.13;95009.28;6042863;28;107578;-82
2022/11/04 09:14:11;;;;;;;19.13;17.23;;;;;;;22.27;36.94;95005.69;6045973;28;103935;-81
2022/11/04 09:17:14;;;;;;;17.40;15.70;;;;;;;22.29;37.49;94998.16;6046633;28;105158;-82
2022/11/04 09:20:18;;;;;;;17.37;15.53;;;;;;;22.32;37.09;94992.22;6037795;28;106215;-82
2022/11/04 09:23:21;;;;;;;18.77;16.97;;;;;;;22.32;36.82;94973.56;6045448;28;105722;-81
2022/11/04 09:26:25;;;;;;;17.77;16.10;;;;;;;22.37;36.69;94976.88;6045407;28;103618;-81
2022/11/04 09:29:32;;;;;;;18.40;16.50;;;;;;;22.40;37.24;94980.81;6045765;28;102754;-81
2022/11/04 09:32:35;;;;;;;17.03;15.43;;;;;;;22.40;37.35;94970.94;6038014;28;103840;-81
2022/11/04 09:35:38;;;;;;;16.77;15.13;;;;;;;22.39;37.06;94968.56;6045740;28;103702;-82
2022/11/04 09:38:43;;;;;;;17.43;15.80;;;;;;;22.40;37.55;94968.25;6047530;28;106842;-82
2022/11/04 09:42:09;;;;;;;17.80;15.83;;;;;;;22.42;37.52;94967.94;6049180;28;103406;-82
2022/11/04 09:45:17;;;;;;;17.90;16.20;;;;;;;22.42;37.58;94955.41;6045007;28;104139;-81
2022/11/04 09:48:28;;;;;;;18.17;16.47;;;;;;;22.44;37.67;94944.44;6048939;28;104055;-82
2022/11/04 09:51:31;;;;;;;18.17;16.30;;;;;;;22.42;37.72;94941.28;6049110;28;104213;-81
2022/11/04 09:55:01;;;;;;;19.30;17.43;;;;;;;22.45;37.26;94935.34;6041236;28;103804;-82
2022/11/04 09:58:04;;;;;;;18.57;16.60;;;;;;;22.45;37.89;94919.34;6049550;28;104395;-81
2022/11/04 10:01:20;;;;;;;17.33;15.63;;;;;;;22.49;37.23;94919.50;6048354;28;104258;-82
2022/11/04 10:04:32;;;;;;;17.00;15.40;;;;;;;22.52;37.67;94913.56;6049006;28;107482;-81
2022/11/04 10:07:49;;;;;;;16.63;15.00;;;;;;;22.52;37.56;94908.22;6043023;28;103963;-81
2022/11/04 10:11:04;;;;;;;16.17;14.60;;;;;;;22.54;37.61;94893.47;6048745;28;104303;-81
2022/11/04 10:14:23;;;;;;;17.27;15.40;;;;;;;22.54;37.78;94898.03;6048211;28;103736;-81
2022/11/04 10:17:51;;;;;;;17.70;16.03;;;;;;;22.56;37.95;94895.84;6040338;28;103868;-80
2022/11/04 10:21:01;;;;;;;18.10;15.40;;;;;;;22.53;37.66;94878.59;6048621;28;107771;-81
2022/11/04 10:24:19;;;;;;;16.93;15.20;;;;;;;22.56;37.80;94875.28;6048606;28;107057;-81
2022/11/04 10:27:29;;;;;;;16.20;14.80;;;;;;;22.53;37.73;94870.56;6044674;28;105574;-78
2022/11/04 10:30:34;;;;;;;16.07;14.57;;;;;;;22.56;37.83;94861.16;6045665;28;103886;-81
2022/11/04 10:33:43;;;;;;;16.00;14.60;;;;;;;22.57;37.93;94862.75;6048186;28;104836;-81
2022/11/04 10:36:47;;;;;;;17.67;15.90;;;;;;;22.48;38.06;94841.38;6047982;28;104903;-82
2022/11/04 10:39:53;;;;;;;16.37;14.77;;;;;;;22.54;38.01;94852.69;6040779;28;106198;-82
2022/11/04 10:42:59;;;;;;;16.33;14.80;;;;;;;22.51;37.88;94853.28;6047717;28;103059;-80
2022/11/04 10:46:15;;;;;;;17.90;16.10;;;;;;;22.40;37.68;94836.84;6048224;28;107305;-80
2022/11/04 10:49:50;;;;;;;18.17;16.30;;;;;;;22.34;37.71;94832.72;6046806;28;107044;-80
2022/11/04 10:53:16;;;;;;;16.20;14.60;;;;;;;22.29;37.93;94824.91;6043732;28;103621;-81
2022/11/04 10:56:28;;;;;;;17.90;16.10;;;;;;;22.34;37.52;94814.84;6047610;28;106839;-80
2022/11/04 10:59:38;;;;;;;17.67;15.80;;;;;;;22.35;37.76;94797.00;6047293;28;106445;-81
2022/11/04 11:02:47;;;;;;;17.43;15.33;;;;;;;22.37;37.77;94800.94;6038580;28;106055;-81
2022/11/04 11:05:52;;;;;;;18.03;16.30;;;;;;;22.43;37.75;94801.53;6047194;28;103729;-82
2022/11/04 11:08:58;;;;;;;17.17;15.43;;;;;;;22.38;37.87;94791.81;6046681;28;104891;-81
2022/11/04 11:12:05;;;;;;;17.80;15.30;;;;;;;22.37;37.93;94781.47;6047858;28;106139;-81
2022/11/04 11:15:33;;;;;;;17.37;15.50;;;;;;;22.37;37.67;94778.81;6038904;28;103569;-82
2022/11/04 11:18:37;;;;;;;18.33;16.43;;;;;;;22.36;37.63;94772.69;6046669;28;104837;-82
2022/11/04 11:21:46;;;;;;;18.00;15.40;;;;;;;22.37;37.55;94760.16;6046328;28;107061;-81
2022/11/04 11:24:50;;;;;;;16.30;14.80;;;;;;;22.36;37.99;94755.91;6038721;28;104505;-81
2022/11/04 11:27:56;;;;;;;16.17;14.70;;;;;;;22.35;38.04;94754.34;6047113;28;104847;-82
2022/11/04 11:31:03;;;;;;;16.83;15.17;;;;;;;22.36;38.29;94755.91;6046512;28;105971;-81
2022/11/04 11:34:15;;;;;;;17.20;15.40;;;;;;;22.33;37.60;94743.19;6047538;28;103560;-82
2022/11/04 11:37:23;;;;;;;17.30;15.70;;;;;;;22.30;38.10;94731.28;6038494;28;103781;-82
2022/11/04 11:40:32;;;;;;;15.77;14.27;;;;;;;22.30;38.11;94730.50;6047318;28;105103;-81
2022/11/04 11:43:40;;;;;;;16.93;15.20;;;;;;;22.27;37.73;94710.59;6046360;28;103260;-81
2022/11/04 11:46:53;;;;;;;15.90;14.27;;;;;;;22.23;38.10;94706.22;6043723;28;106958;-81
2022/11/04 11:50:07;;;;;;;16.60;15.00;;;;;;;22.23;37.94;94707.00;6042878;28;103525;-81
2022/11/04 11:53:17;;;;;;;16.33;14.60;;;;;;;22.21;37.80;94695.88;6045629;28;105146;-81
2022/11/04 11:56:28;;;;;;;16.77;15.17;;;;;;;22.21;37.83;94690.53;6047011;28;104963;-82
2022/11/04 11:59:54;;;;;;;16.50;14.50;;;;;;;22.18;37.82;94685.03;6038382;28;105286;-81
2022/11/04 12:03:29;;;;;;;17.97;14.87;;;;;;;22.18;38.19;94682.38;6045498;28;103872;-82
2022/11/04 12:07:03;;;;;;;17.63;14.90;;;;;;;22.11;38.37;94667.63;6047269;28;103461;-82
2022/11/04 12:10:36;;;;;;;16.80;14.87;;;;;;;22.11;38.01;94672.97;6037491;28;104533;-80
2022/11/04 12:13:56;;;;;;;14.60;13.23;;;;;;;22.12;37.65;94671.09;6046208;28;106197;-79
2022/11/04 12:17:13;;;;;;;16.60;14.43;;;;;;;22.08;37.46;94668.28;6045955;28;104120;-79
2022/11/04 12:20:25;;;;;;;16.57;13.87;;;;;;;22.09;37.79;94667.19;6045399;28;104006;-80
2022/11/04 12:23:35;;;;;;;13.83;12.57;;;;;;;22.06;37.51;94656.38;6036668;28;107606;-80
2022/11/04 12:26:47;;;;;;;14.77;12.60;;;;;;;22.07;37.56;94664.03;6045131;28;104024;-80
2022/11/04 12:30:06;;;;;;;15.13;13.40;;;;;;;22.06;37.55;94667.03;6045846;28;103713;-81
2022/11/04 12:33:23;;;;;;;16.00;13.67;;;;;;;22.05;38.10;94668.91;6038445;28;104184;-81
2022/11/04 12:36:43;;;;;;;14.27;12.77;;;;;;;22.04;37.48;94659.34;6046232;28;108362;-81
2022/11/04 12:40:03;;;;;;;17.73;13.57;;;;;;;22.03;37.70;94673.78;6046009;28;104041;-82
2022/11/04 12:43:20;;;;;;;16.40;13.90;;;;;;;22.02;37.98;94664.22;6046544;28;103461;-81
2022/11/04 12:46:33;;;;;;;14.30;12.80;;;;;;;22.04;37.92;94672.66;6038287;28;103678;-81
2022/11/04 12:49:56;;;;;;;16.20;14.50;;;;;;;22.02;37.94;94661.56;6046070;28;103713;-81
2022/11/04 12:53:22;;;;;;;16.93;14.63;;;;;;;22.04;38.03;94646.03;6045317;28;104943;-81
2022/11/04 12:56:36;;;;;;;14.87;13.27;;;;;;;22.03;37.91;94639.13;6038135;28;103847;-81
2022/11/04 12:59:53;;;;;;;18.03;13.40;;;;;;;22.02;37.54;94634.91;6044746;28;104156;-81
2022/11/04 13:03:01;;;;;;;16.37;14.63;;;;;;;22.03;37.67;94643.69;6044641;28;104241;-81
2022/11/04 13:06:12;;;;;;;18.43;15.37;;;;;;;22.02;37.94;94647.44;6046374;28;107395;-81
2022/11/04 13:09:20;;;;;;;16.87;13.80;;;;;;;22.00;37.96;94645.06;6040269;28;104887;-82
2022/11/04 13:12:27;;;;;;;17.27;13.40;;;;;;;22.04;37.74;94640.69;6044835;28;104776;-82
2022/11/04 13:15:40;;;;;;;14.87;13.47;;;;;;;22.06;38.23;94635.84;6045125;28;106017;-81
2022/11/04 13:18:44;;;;;;;15.70;13.27;;;;;;;22.03;37.83;94641.00;6038079;28;107850;-82
2022/11/04 13:21:48;;;;;;;17.77;13.00;;;;;;;21.90;37.81;94637.41;6045148;28;103586;-82
2022/11/04 13:24:55;;;;;;;22.70;12.93;;;;;;;21.89;37.68;94635.84;6044802;28;105058;-82
2022/11/04 13:27:59;;;;;;;16.87;13.13;;;;;;;21.79;37.46;94646.78;6045655;28;104154;-82
2022/11/04 13:31:08;;;;;;;16.07;12.13;;;;;;;21.84;37.87;94651.97;6036044;28;106089;-81
2022/11/04 13:34:22;;;;;;;16.40;12.43;;;;;;;21.94;37.76;94646.34;6044200;28;106547;-82
2022/11/04 13:37:31;;;;;;;13.00;11.70;;;;;;;22.01;37.57;94641.34;6044259;28;103473;-82
2022/11/04 13:40:46;;;;;;;16.10;13.77;;;;;;;22.04;37.45;94642.59;6040448;28;103896;-82
2022/11/04 13:43:53;;;;;;;16.93;13.10;;;;;;;22.08;37.00;94635.50;6041020;28;103951;-82
2022/11/04 13:47:03;;;;;;;13.97;12.57;;;;;;;22.04;37.44;94638.03;6044673;28;106990;-82
2022/11/04 13:50:27;;;;;;;18.03;12.60;;;;;;;22.00;37.64;94637.06;6044694;28;106552;-82
2022/11/04 13:53:50;;;;;;;17.60;12.40;;;;;;;21.97;37.18;94640.38;6037483;28;104130;-82
2022/11/04 13:57:05;;;;;;;15.20;12.63;;;;;;;21.95;37.56;94634.56;6045009;28;104347;-81
2022/11/04 14:00:22;;;;;;;14.00;12.33;;;;;;;21.88;37.78;94622.84;6044580;28;104823;-82
2022/11/04 14:03:53;;;;;;;17.40;13.00;;;;;;;21.92;38.18;94629.88;6039552;28;103496;-81
2022/11/04 14:06:59;;;;;;;16.20;13.90;;;;;;;21.94;37.74;94626.91;6044317;28;104347;-81
2022/11/04 14:10:02;;;;;;;15.90;13.80;;;;;;;21.90;38.00;94626.75;6044419;28;103945;-81
2022/11/04 14:13:47;;;;;;;20.67;13.93;;;;;;;21.89;38.11;94630.53;6044725;28;107581;-81
2022/11/04 14:16:50;;;;;;;18.57;13.20;;;;;;;21.88;38.25;94612.19;6036394;28;104478;-81
2022/11/04 14:20:01;;;;;;;16.43;13.77;;;;;;;21.83;37.98;94615.78;6044903;28;104991;-81
2022/11/04 14:23:07;;;;;;;19.87;13.83;;;;;;;21.85;37.91;94618.16;6043968;28;106346;-81
2022/11/04 14:26:12;;;;;;;14.80;12.67;;;;;;;21.84;38.11;94632.53;6041963;28;104027;-81
2022/11/04 14:29:19;;;;;;;21.17;13.43;;;;;;;21.84;37.99;94627.22;6046754;28;104924;-80
2022/11/04 14:32:28;;;;;;;21.97;13.50;;;;;;;21.81;38.21;94620.59;6048154;28;107207;-81
2022/11/04 14:35:33;;;;;;;23.20;13.73;;;;;;;21.83;37.92;94625.66;6047125;28;103666;-81
2022/11/04 14:38:37;;;;;;;15.33;13.73;;;;;;;21.80;38.44;94627.03;6039922;28;103724;-81
2022/11/04 14:42:00;;;;;;;16.10;14.40;;;;;;;21.82;38.50;94630.19;6047812;28;105932;-81
2022/11/04 14:45:08;;;;;;;20.13;14.47;;;;;;;21.82;38.47;94614.22;6047519;28;104251;-81
2022/11/04 14:48:15;;;;;;;20.87;13.40;;;;;;;21.81;38.12;94618.72;6046468;28;105251;-81
2022/11/04 14:51:25;;;;;;;16.33;13.73;;;;;;;21.80;37.94;94627.81;6043834;28;103783;-81